Pearcot, Washington
Current Conditions -  °F | °C
As of 8:55 AM on Sunday 23 Nov 2014 (Local Time) from KEAT Reporting Station
Scattered Clouds Scattered Clouds  
Wind Chill:   Ceiling: Unl
Heat Index:   Visibility: 10mi
Dew Point: -2°   Wind: 3mph
Humidity: 60%   Direction: NA
Pressure: 30.04"   Gusts: NA
Location:  47.3635°N, 120.348°W
Report Text: KEAT 231655Z AUTO VRB03KT 10SM SCT065 06/M02 A3004 RMK AO2 SLP178 T00561017
Loading
Personal Weather Stations






























Interactive Weather Map New forecast layout! Learn more

10-Day Weather Forecast

Advertisements
Track Severe Weather on mobile